Time;durP1;ratioP1;P1;durP2;ratioP2;P2;SDS_P1;SDS_P2;PMS_P1;PMS_P2;Temp;Humidity;BMP_temperature;BMP_pressure;BME280_temperature;BME280_humidity;BME280_pressure;Samples;Min_cycle;Max_cycle;Signal;HPM_P1;HPM_P2
2021/05/26 00:05:04;;;;;;;2.00;0.70;;;12.20;1.00;;;;;;5566957;23;20050;-75
2021/05/26 00:07:30;;;;;;;2.05;0.60;;;12.20;1.00;;;;;;4992559;28;20395;-75
2021/05/26 00:09:55;;;;;;;2.00;0.70;;;12.20;1.00;;;;;;4993335;28;20031;-75
2021/05/26 00:12:21;;;;;;;2.65;0.70;;;12.30;1.00;;;;;;4992764;28;20018;-74
2021/05/26 00:14:46;;;;;;;1.08;0.68;;;12.30;1.00;;;;;;4993925;28;20022;-76
2021/05/26 00:17:12;;;;;;;1.35;0.80;;;12.30;99.90;;;;;;4993780;28;20030;-76
2021/05/26 00:29:59;;;;;;;3.15;0.73;;;12.30;99.90;;;;;;5379651;23;20050;-76
2021/05/26 00:32:24;;;;;;;2.22;1.45;;;12.40;99.90;;;;;;4993206;28;20053;-75
2021/05/26 00:34:50;;;;;;;1.00;0.70;;;12.40;99.90;;;;;;4993115;28;20549;-74
2021/05/26 00:37:15;;;;;;;1.20;0.50;;;12.30;1.00;;;;;;4992903;28;20483;-75
2021/05/26 00:39:43;;;;;;;1.55;0.70;;;12.50;99.90;;;;;;4992953;28;20026;-76
2021/05/26 00:42:08;;;;;;;2.25;0.70;;;12.50;1.00;;;;;;5008676;28;20391;-76
2021/05/26 00:44:34;;;;;;;2.83;0.90;;;12.40;94.90;;;;;;4993037;28;20027;-76
2021/05/26 00:47:00;;;;;;;2.35;0.70;;;12.40;99.90;;;;;;4992963;28;20111;-75
2021/05/26 00:49:25;;;;;;;0.65;0.50;;;12.40;99.90;;;;;;4992815;28;20542;-75
2021/05/26 00:51:51;;;;;;;2.28;0.77;;;12.40;99.90;;;;;;4993132;28;20026;-75
2021/05/26 00:54:16;;;;;;;1.83;0.90;;;12.40;99.90;;;;;;4991492;28;20120;-74
2021/05/26 00:56:42;;;;;;;2.58;0.77;;;12.40;99.90;;;;;;4992787;28;20022;-76
2021/05/26 00:59:08;;;;;;;2.63;0.60;;;12.40;99.90;;;;;;4992872;28;20098;-74
2021/05/26 01:01:34;;;;;;;2.05;0.77;;;12.40;99.90;;;;;;4992702;28;20511;-75
2021/05/26 01:04:00;;;;;;;2.03;0.70;;;12.40;1.00;;;;;;4984964;28;20560;-75
2021/05/26 01:06:26;;;;;;;3.88;0.95;;;12.40;81.60;;;;;;4984502;28;20395;-75
2021/05/26 01:08:52;;;;;;;0.90;0.70;;;12.30;99.90;;;;;;4992511;28;20026;-75
2021/05/26 01:11:18;;;;;;;0.90;0.70;;;12.30;99.90;;;;;;4991293;28;20394;-75
2021/05/26 01:13:44;;;;;;;1.20;1.10;;;12.30;99.90;;;;;;4992832;28;20426;-76
2021/05/26 01:16:09;;;;;;;2.17;0.70;;;12.30;18.60;;;;;;4992419;28;20019;-74
2021/05/26 01:18:36;;;;;;;3.20;1.15;;;12.40;71.30;;;;;;4992444;28;20033;-75
2021/05/26 01:21:09;;;;;;;1.77;0.70;;;12.40;99.90;;;;;;4992712;28;20026;-75
2021/05/26 01:23:36;;;;;;;1.08;0.80;;;12.40;79.30;;;;;;5007497;28;20073;-75
2021/05/26 01:26:04;;;;;;;3.25;0.80;;;12.40;99.90;;;;;;4991992;28;20109;-75
2021/05/26 01:28:32;;;;;;;1.45;0.70;;;12.30;99.90;;;;;;4992521;28;20034;-75
2021/05/26 01:30:58;;;;;;;1.55;1.10;;;12.30;1.00;;;;;;4992119;28;20039;-75
2021/05/26 01:33:24;;;;;;;1.73;0.73;;;12.30;1.00;;;;;;4992271;28;20030;-75
2021/05/26 01:35:50;;;;;;;1.13;0.90;;;12.20;1.00;;;;;;4992005;28;20023;-74
2021/05/26 01:38:19;;;;;;;2.83;0.73;;;12.20;1.00;;;;;;4992485;28;20030;-78
2021/05/26 01:40:46;;;;;;;2.63;0.80;;;12.20;1.00;;;;;;5007697;28;20061;-75
2021/05/26 01:43:12;;;;;;;1.98;0.70;;;12.20;1.00;;;;;;4992272;28;20030;-75
2021/05/26 01:45:38;;;;;;;1.88;1.00;;;12.20;1.00;;;;;;4992089;28;20034;-75
2021/05/26 01:48:04;;;;;;;1.30;0.70;;;12.10;1.00;;;;;;4992205;28;20491;-76
2021/05/26 01:50:30;;;;;;;2.65;0.70;;;12.10;1.00;;;;;;4992229;28;20057;-75
2021/05/26 01:53:05;;;;;;;1.00;0.73;;;12.10;1.00;;;;;;4990780;28;20059;-75
2021/05/26 01:55:35;;;;;;;2.50;0.60;;;12.10;1.00;;;;;;4992208;28;20101;-76
2021/05/26 01:58:01;;;;;;;2.60;1.02;;;12.00;1.00;;;;;;4991139;28;20390;-75
2021/05/26 02:00:27;;;;;;;2.17;0.70;;;12.00;1.00;;;;;;4990749;28;20031;-75
2021/05/26 02:02:53;;;;;;;1.75;0.60;;;11.90;1.00;;;;;;4992131;28;20400;-75
2021/05/26 02:05:20;;;;;;;1.55;0.80;;;12.00;1.00;;;;;;4983963;28;20027;-74
2021/05/26 02:07:47;;;;;;;2.00;0.70;;;11.90;1.00;;;;;;4991866;28;20105;-75
2021/05/26 02:10:15;;;;;;;3.35;0.70;;;11.90;1.00;;;;;;4991861;28;20102;-75
2021/05/26 02:12:44;;;;;;;2.35;0.60;;;11.80;1.00;;;;;;4991860;28;20029;-74
2021/05/26 02:15:13;;;;;;;7.22;1.13;;;11.80;1.00;;;;;;4991780;28;20033;-75
2021/05/26 02:17:39;;;;;;;4.80;0.98;;;11.90;1.00;;;;;;4992027;28;20555;-75
2021/05/26 02:20:07;;;;;;;3.80;0.60;;;11.80;1.00;;;;;;4990558;28;20042;-75
2021/05/26 02:22:34;;;;;;;1.58;0.55;;;11.80;1.00;;;;;;4991920;28;20113;-75
2021/05/26 02:25:00;;;;;;;2.00;0.60;;;11.80;1.00;;;;;;4992100;28;20521;-75
2021/05/26 02:27:26;;;;;;;1.50;0.60;;;11.70;1.40;;;;;;4991749;28;20030;-75
2021/05/26 02:29:51;;;;;;;2.05;0.57;;;11.70;14.90;;;;;;4991948;28;20371;-75
2021/05/26 02:32:17;;;;;;;1.98;0.57;;;11.70;15.50;;;;;;4995700;28;20065;-76
2021/05/26 02:34:42;;;;;;;1.73;0.90;;;11.70;49.00;;;;;;4995318;28;20027;-75
2021/05/26 02:37:08;;;;;;;1.73;0.60;;;11.70;45.30;;;;;;4995113;28;20023;-75
2021/05/26 02:39:34;;;;;;;2.85;0.70;;;11.60;93.90;;;;;;4994831;28;20391;-74
2021/05/26 02:42:00;;;;;;;2.67;0.80;;;11.60;89.20;;;;;;4994938;28;20036;-75
2021/05/26 02:44:25;;;;;;;4.15;0.55;;;11.60;99.90;;;;;;4994898;28;20054;-75
2021/05/26 02:46:51;;;;;;;3.33;0.70;;;11.60;99.90;;;;;;4994950;28;20030;-75
2021/05/26 02:49:17;;;;;;;0.90;0.70;;;11.60;99.90;;;;;;4994837;28;20026;-75
2021/05/26 02:51:43;;;;;;;1.42;0.73;;;11.50;99.90;;;;;;4995121;28;20022;-73
2021/05/26 02:54:09;;;;;;;0.90;0.60;;;11.60;99.90;;;;;;4993575;28;20109;-74
2021/05/26 02:56:36;;;;;;;3.88;0.68;;;11.60;99.90;;;;;;4994552;28;20022;-75
2021/05/26 02:59:04;;;;;;;1.85;0.68;;;11.60;99.90;;;;;;4992993;28;20030;-74
2021/05/26 03:01:30;;;;;;;1.27;0.55;;;11.60;99.90;;;;;;4994842;28;20041;-74
2021/05/26 03:03:55;;;;;;;1.35;0.60;;;11.60;99.90;;;;;;4986391;28;20109;-76
2021/05/26 03:06:21;;;;;;;3.00;0.75;;;11.50;99.90;;;;;;4993616;28;20089;-75
2021/05/26 03:08:46;;;;;;;0.85;0.70;;;11.50;99.90;;;;;;4994387;28;20033;-75
2021/05/26 03:11:12;;;;;;;3.33;0.88;;;11.50;99.90;;;;;;4994349;28;20484;-75
2021/05/26 03:13:38;;;;;;;2.15;0.70;;;11.60;99.90;;;;;;4994483;28;20503;-75
2021/05/26 03:16:03;;;;;;;2.42;0.57;;;11.50;99.90;;;;;;4994392;28;20027;-75
2021/05/26 03:18:29;;;;;;;2.75;0.70;;;11.40;99.90;;;;;;4992721;28;20049;-76
2021/05/26 03:20:55;;;;;;;3.00;1.08;;;11.40;99.90;;;;;;5009458;28;20080;-75
2021/05/26 03:23:21;;;;;;;2.70;1.35;;;11.40;99.90;;;;;;4994307;28;20085;-75
2021/05/26 03:25:47;;;;;;;1.48;0.55;;;11.40;99.90;;;;;;4992700;28;20030;-74
2021/05/26 03:28:16;;;;;;;4.15;0.88;;;11.40;99.90;;;;;;4994194;28;20368;-75
2021/05/26 03:30:43;;;;;;;1.83;0.93;;;11.40;99.90;;;;;;4992799;28;20038;-75
2021/05/26 03:33:11;;;;;;;2.38;0.70;;;11.50;99.90;;;;;;4992993;28;20029;-75
2021/05/26 03:35:41;;;;;;;2.17;0.80;;;11.40;99.90;;;;;;4993713;28;20023;-74
2021/05/26 03:38:06;;;;;;;2.55;0.90;;;11.40;99.90;;;;;;4994289;28;20503;-76
2021/05/26 03:40:32;;;;;;;1.95;0.70;;;11.30;99.90;;;;;;4993935;28;20103;-74
2021/05/26 03:42:58;;;;;;;2.78;1.67;;;11.30;99.90;;;;;;4992717;28;20034;-74
2021/05/26 03:45:24;;;;;;;4.50;1.63;;;11.30;99.90;;;;;;4994025;28;20018;-75
2021/05/26 03:47:50;;;;;;;1.85;0.90;;;11.30;99.90;;;;;;4992700;28;20027;-76
2021/05/26 03:50:15;;;;;;;7.32;1.38;;;11.40;99.90;;;;;;4993690;28;20102;-74
2021/05/26 03:52:43;;;;;;;2.47;0.70;;;11.30;99.90;;;;;;4993718;28;20487;-74
2021/05/26 03:55:14;;;;;;;2.45;0.80;;;11.40;99.90;;;;;;4993807;28;20026;-75
2021/05/26 03:57:39;;;;;;;4.10;1.23;;;11.40;99.90;;;;;;4992038;28;20024;-75
2021/05/26 04:00:07;;;;;;;2.33;0.70;;;11.40;99.90;;;;;;4993700;28;20394;-75
2021/05/26 04:02:33;;;;;;;3.20;1.00;;;11.40;99.90;;;;;;4992289;28;20026;-76
2021/05/26 04:04:59;;;;;;;1.90;1.00;;;11.40;99.90;;;;;;4990773;28;20034;-74
2021/05/26 04:07:24;;;;;;;5.03;0.90;;;11.50;99.90;;;;;;4993425;28;20022;-75
2021/05/26 04:09:50;;;;;;;3.75;0.70;;;11.50;99.90;;;;;;4991957;28;20093;-75
2021/05/26 04:12:16;;;;;;;3.58;0.90;;;11.50;99.90;;;;;;4993523;28;20644;-75
2021/05/26 04:14:41;;;;;;;1.20;0.70;;;11.50;99.90;;;;;;4992041;28;20026;-76
2021/05/26 04:17:07;;;;;;;2.95;0.93;;;11.50;99.90;;;;;;5008215;28;20037;-74
2021/05/26 04:19:32;;;;;;;4.78;0.90;;;11.60;99.90;;;;;;5008289;28;20490;-74
2021/05/26 04:21:58;;;;;;;4.40;0.65;;;11.60;99.90;;;;;;4993160;28;20415;-74
2021/05/26 04:24:24;;;;;;;2.03;1.25;;;11.60;99.90;;;;;;4993166;28;20072;-75
2021/05/26 04:26:49;;;;;;;3.15;1.00;;;11.60;99.90;;;;;;4992871;28;20038;-74
2021/05/26 04:29:15;;;;;;;3.17;1.02;;;11.60;99.90;;;;;;4991999;28;20487;-74
2021/05/26 04:31:41;;;;;;;3.30;1.08;;;11.60;99.90;;;;;;4993364;28;20031;-75
2021/05/26 04:34:06;;;;;;;1.92;0.60;;;11.60;99.90;;;;;;4991501;28;20483;-74
2021/05/26 04:36:32;;;;;;;4.93;0.85;;;11.60;99.90;;;;;;4992472;28;20068;-75
2021/05/26 04:38:58;;;;;;;2.30;0.80;;;11.60;99.90;;;;;;4992516;28;20057;-75
2021/05/26 04:41:23;;;;;;;4.20;0.98;;;11.60;99.90;;;;;;4993026;28;20026;-74
2021/05/26 04:43:49;;;;;;;2.17;0.90;;;11.50;99.90;;;;;;4992855;28;20391;-75
2021/05/26 04:46:14;;;;;;;6.00;1.25;;;11.50;99.90;;;;;;4992688;28;20438;-76
2021/05/26 04:48:40;;;;;;;1.67;0.68;;;11.60;99.90;;;;;;4991498;28;20434;-74
2021/05/26 04:51:05;;;;;;;3.40;1.00;;;11.50;99.90;;;;;;4992745;28;20104;-74
2021/05/26 04:53:31;;;;;;;2.92;1.83;;;11.60;99.90;;;;;;4991225;28;20077;-75
2021/05/26 04:55:57;;;;;;;5.75;0.90;;;11.50;99.90;;;;;;4992447;28;20034;-74
2021/05/26 04:58:22;;;;;;;7.03;1.25;;;11.40;99.90;;;;;;4998626;28;20037;-78
2021/05/26 05:00:48;;;;;;;2.78;1.08;;;11.50;99.90;;;;;;5011725;28;20070;-74
2021/05/26 05:03:13;;;;;;;3.38;1.10;;;11.50;99.90;;;;;;5012832;28;20041;-74
2021/05/26 05:05:39;;;;;;;2.33;1.27;;;11.40;99.90;;;;;;5012147;28;20030;-75
2021/05/26 05:08:06;;;;;;;4.28;1.15;;;11.40;99.90;;;;;;5011432;28;20044;-74
2021/05/26 05:10:32;;;;;;;3.80;1.00;;;11.40;99.90;;;;;;5010125;28;20018;-74
2021/05/26 05:12:58;;;;;;;4.32;1.55;;;11.40;99.90;;;;;;5008558;28;20077;-74
2021/05/26 05:15:24;;;;;;;3.95;1.13;;;11.30;1.00;;;;;;5002179;28;20402;-73
2021/05/26 05:17:50;;;;;;;2.83;0.80;;;11.30;1.00;;;;;;4996262;28;20026;-75
2021/05/26 05:20:21;;;;;;;4.70;1.08;;;11.30;1.00;;;;;;4993705;28;20406;-75
2021/05/26 05:22:54;;;;;;;3.30;1.42;;;11.20;1.00;;;;;;4994639;28;20030;-75
2021/05/26 05:25:20;;;;;;;2.50;1.10;;;11.30;1.00;;;;;;4993482;28;20033;-74
2021/05/26 05:27:46;;;;;;;3.38;1.27;;;11.20;1.00;;;;;;4992969;28;20077;-75
2021/05/26 05:30:13;;;;;;;3.92;0.90;;;11.20;1.00;;;;;;4992712;28;20467;-74
2021/05/26 05:32:39;;;;;;;2.05;1.05;;;11.20;1.00;;;;;;4992532;28;20022;-74
2021/05/26 05:35:05;;;;;;;2.35;1.10;;;11.20;1.00;;;;;;4992619;28;20510;-76
2021/05/26 05:37:30;;;;;;;2.80;0.68;;;11.30;1.00;;;;;;4994328;28;20487;-75
2021/05/26 05:39:56;;;;;;;3.00;1.20;;;11.30;1.00;;;;;;5011006;28;20066;-75
2021/05/26 05:42:22;;;;;;;4.63;1.23;;;11.20;1.00;;;;;;5010954;28;20085;-74
2021/05/26 05:44:47;;;;;;;3.63;1.17;;;11.30;1.00;;;;;;5009664;28;20026;-75
2021/05/26 05:47:13;;;;;;;2.15;1.23;;;11.40;1.00;;;;;;5007138;28;20034;-74
2021/05/26 05:49:39;;;;;;;6.97;1.30;;;11.40;1.00;;;;;;5006165;28;20482;-75
2021/05/26 05:52:05;;;;;;;3.13;1.10;;;11.50;1.00;;;;;;4993340;28;20031;-75
2021/05/26 05:54:31;;;;;;;3.17;1.00;;;11.40;1.00;;;;;;4992490;28;20537;-75
2021/05/26 05:56:56;;;;;;;3.30;1.10;;;11.40;1.00;;;;;;4992517;28;20030;-75
2021/05/26 05:59:22;;;;;;;2.60;1.15;;;11.30;1.00;;;;;;4987810;28;20045;-75
2021/05/26 06:01:47;;;;;;;5.70;1.45;;;11.30;1.00;;;;;;4990718;28;20030;-75
2021/05/26 06:04:13;;;;;;;1.27;0.85;;;11.40;1.00;;;;;;4991168;28;20041;-74
2021/05/26 06:06:38;;;;;;;5.25;1.17;;;11.30;1.00;;;;;;4993947;28;20026;-76
2021/05/26 06:09:05;;;;;;;4.30;1.02;;;11.30;1.00;;;;;;4995506;28;20034;-75
2021/05/26 06:11:33;;;;;;;2.53;1.15;;;11.30;1.00;;;;;;4995626;28;20113;-75
2021/05/26 06:14:06;;;;;;;7.18;4.90;;;11.40;1.00;;;;;;4994349;28;20034;-74
2021/05/26 06:16:36;;;;;;;3.22;1.48;;;11.40;1.00;;;;;;4994387;28;20037;-75
2021/05/26 06:19:03;;;;;;;2.90;0.98;;;11.30;1.00;;;;;;4995892;28;20057;-77
2021/05/26 06:21:30;;;;;;;4.40;1.10;;;11.40;1.00;;;;;;4996153;28;20026;-75
2021/05/26 06:23:56;;;;;;;4.03;1.50;;;11.40;1.00;;;;;;4995812;28;20041;-75
2021/05/26 06:26:21;;;;;;;2.78;1.17;;;11.40;1.00;;;;;;4993958;28;20117;-75
2021/05/26 06:28:53;;;;;;;6.05;1.10;;;11.40;1.00;;;;;;4993730;28;20030;-75
2021/05/26 06:31:20;;;;;;;3.40;1.05;;;11.50;1.00;;;;;;4994522;28;20394;-74
2021/05/26 06:33:46;;;;;;;12.88;2.28;;;11.60;1.00;;;;;;4995367;28;20022;-75
2021/05/26 06:36:12;;;;;;;4.78;1.10;;;11.60;1.00;;;;;;4995274;28;20022;-75
2021/05/26 06:38:38;;;;;;;3.75;1.40;;;11.70;1.00;;;;;;4995257;28;20030;-74
2021/05/26 06:41:04;;;;;;;2.60;0.70;;;11.60;1.00;;;;;;4995273;28;20023;-76
2021/05/26 06:43:30;;;;;;;2.42;0.82;;;11.60;1.00;;;;;;4993877;28;20471;-75
2021/05/26 06:45:56;;;;;;;2.13;1.15;;;11.50;1.00;;;;;;4995151;28;20049;-73
2021/05/26 06:48:23;;;;;;;4.60;1.17;;;11.60;1.00;;;;;;4994680;28;20029;-75
2021/05/26 06:50:49;;;;;;;2.08;0.70;;;11.60;1.00;;;;;;4994669;28;20077;-75
2021/05/26 06:53:14;;;;;;;8.43;1.20;;;11.70;1.00;;;;;;4995697;28;20423;-75
2021/05/26 06:55:40;;;;;;;1.63;0.82;;;11.70;1.00;;;;;;4994663;28;20085;-75
2021/05/26 06:58:06;;;;;;;9.20;1.20;;;11.80;1.00;;;;;;4995391;28;20030;-75
2021/05/26 07:00:32;;;;;;;189.52;31.85;;;12.00;1.00;;;;;;4995212;28;20053;-76
2021/05/26 07:02:58;;;;;;;3.28;1.42;;;12.00;1.00;;;;;;5010060;28;20054;-76
2021/05/26 07:05:23;;;;;;;29.70;3.78;;;12.10;1.00;;;;;;4993505;28;20113;-75
2021/05/26 07:07:49;;;;;;;32.47;4.22;;;12.20;1.00;;;;;;5009850;28;20394;-74
2021/05/26 07:10:16;;;;;;;212.25;28.33;;;12.20;1.00;;;;;;4994449;28;20084;-76
2021/05/26 07:12:42;;;;;;;43.58;5.97;;;12.20;1.00;;;;;;4994648;28;20033;-75
2021/05/26 07:15:08;;;;;;;5.70;1.00;;;12.20;1.00;;;;;;4993407;28;20027;-75
2021/05/26 07:17:34;;;;;;;55.47;7.57;;;12.20;1.00;;;;;;4997333;28;20082;-75
2021/05/26 07:19:59;;;;;;;2.50;1.10;;;12.20;1.00;;;;;;5006299;28;20041;-75
2021/05/26 07:22:28;;;;;;;3.40;1.02;;;12.30;1.00;;;;;;4995044;28;20049;-75
2021/05/26 07:24:54;;;;;;;349.77;47.45;;;12.30;1.00;;;;;;4994328;28;20026;-75
2021/05/26 07:27:19;;;;;;;4.43;1.90;;;12.30;1.00;;;;;;4996109;28;20049;-75
2021/05/26 07:29:45;;;;;;;6.15;1.42;;;12.40;1.00;;;;;;4993733;28;20117;-76
2021/05/26 07:32:10;;;;;;;36.67;5.03;;;12.30;1.00;;;;;;4995390;28;20023;-74
2021/05/26 07:34:36;;;;;;;9.13;1.58;;;12.30;1.00;;;;;;4993752;28;20022;-75
2021/05/26 07:37:01;;;;;;;5.25;1.30;;;12.50;1.00;;;;;;4994838;28;20033;-75
2021/05/26 07:39:28;;;;;;;92.30;12.80;;;12.60;1.00;;;;;;4995454;28;20061;-75
2021/05/26 07:41:54;;;;;;;9.65;1.60;;;12.60;1.00;;;;;;4994956;28;20089;-75
2021/05/26 07:44:19;;;;;;;169.20;20.05;;;12.60;1.00;;;;;;4988099;28;20023;-75
2021/05/26 07:46:45;;;;;;;88.35;15.95;;;12.70;1.00;;;;;;4993949;28;20487;-76
2021/05/26 07:49:11;;;;;;;4.53;1.60;;;12.70;1.00;;;;;;4993404;28;20117;-76
2021/05/26 07:51:41;;;;;;;16.23;2.80;;;12.70;1.00;;;;;;4994220;28;20022;-78
2021/05/26 07:54:06;;;;;;;107.10;15.57;;;12.70;1.00;;;;;;4995326;28;20030;-78
2021/05/26 07:56:33;;;;;;;20.27;4.72;;;12.70;1.00;;;;;;4993713;28;20022;-78
2021/05/26 07:58:59;;;;;;;33.47;5.05;;;12.70;99.90;;;;;;4994073;28;20034;-78
2021/05/26 08:01:25;;;;;;;4.30;1.80;;;12.80;99.90;;;;;;4993708;28;20022;-82
2021/05/26 08:03:50;;;;;;;7.30;2.58;;;12.80;99.90;;;;;;4995700;28;20029;-78
2021/05/26 08:06:16;;;;;;;5.50;2.80;;;12.80;99.90;;;;;;4991517;28;20027;-80
2021/05/26 08:08:42;;;;;;;11.57;2.45;;;12.90;99.90;;;;;;4979533;28;20027;-83
2021/05/26 08:11:07;;;;;;;8.18;2.75;;;12.90;99.90;;;;;;4999524;28;20061;-82
2021/05/26 08:13:33;;;;;;;5.47;1.50;;;12.90;99.90;;;;;;4996958;28;20434;-81
2021/05/26 08:15:58;;;;;;;5.65;2.13;;;13.00;99.90;;;;;;4997335;28;20100;-81
2021/05/26 08:18:24;;;;;;;4.55;2.03;;;12.90;99.90;;;;;;5000906;28;20019;-81
2021/05/26 08:20:50;;;;;;;5.30;1.15;;;13.00;99.90;;;;;;4980036;28;20480;-80
2021/05/26 08:23:17;;;;;;;5.35;1.63;;;13.00;99.90;;;;;;4977983;28;20384;-79
2021/05/26 08:25:43;;;;;;;6.57;1.48;;;13.00;99.90;;;;;;4984928;28;20050;-80
2021/05/26 08:28:11;;;;;;;4.35;1.42;;;13.00;99.90;;;;;;4993905;28;20051;-85
2021/05/26 08:30:37;;;;;;;4.22;1.10;;;12.90;99.90;;;;;;4984799;28;20064;-83
2021/05/26 08:33:03;;;;;;;4.82;1.13;;;13.00;99.90;;;;;;5008883;28;20118;-84
2021/05/26 08:35:28;;;;;;;3.55;1.23;;;13.00;99.90;;;;;;5000291;28;20037;-81
2021/05/26 08:37:54;;;;;;;2.25;1.40;;;13.00;99.90;;;;;;4996684;28;20061;-77
2021/05/26 08:40:20;;;;;;;8.50;1.77;;;12.90;99.90;;;;;;4995938;28;20026;-80
2021/05/26 08:42:46;;;;;;;7.38;1.30;;;12.90;99.90;;;;;;4992110;28;20030;-76
2021/05/26 08:45:13;;;;;;;7.57;2.00;;;12.80;99.90;;;;;;4994276;28;20026;-77
2021/05/26 08:47:45;;;;;;;4.65;1.38;;;12.80;99.90;;;;;;5015010;28;20069;-78
2021/05/26 08:50:13;;;;;;;5.53;1.10;;;12.90;99.90;;;;;;5017689;28;20038;-76
2021/05/26 08:52:41;;;;;;;2.85;1.05;;;12.90;99.90;;;;;;5015875;28;20007;-77
2021/05/26 08:55:11;;;;;;;4.55;1.35;;;12.90;99.90;;;;;;5016947;28;20018;-75
2021/05/26 08:57:37;;;;;;;10.55;2.28;;;12.90;99.90;;;;;;5016529;28;20037;-76
2021/05/26 09:00:07;;;;;;;10.77;2.08;;;12.80;99.90;;;;;;5017265;28;20007;-79
2021/05/26 09:02:32;;;;;;;3.58;1.40;;;12.90;99.90;;;;;;5017210;28;20034;-78
2021/05/26 09:04:58;;;;;;;7.00;0.88;;;12.90;99.90;;;;;;5017368;28;20014;-76
2021/05/26 09:07:26;;;;;;;12.20;2.35;;;12.90;99.90;;;;;;5016602;28;20975;-78
2021/05/26 09:09:53;;;;;;;1.52;1.10;;;13.00;99.90;;;;;;5012430;28;20384;-84
2021/05/26 09:12:39;;;;;;;5.57;2.00;;;13.00;99.90;;;;;;4999508;28;20026;-84
2021/05/26 09:15:08;;;;;;;5.85;3.20;;;13.20;99.90;;;;;;5001627;28;20030;-87
2021/05/26 09:17:38;;;;;;;9.85;3.92;;;13.10;99.90;;;;;;5000582;28;20447;-85
2021/05/26 09:20:27;;;;;;;2.33;0.90;;;13.20;99.90;;;;;;5000390;28;20018;-85
2021/05/26 09:23:07;;;;;;;4.75;1.88;;;13.20;99.90;;;;;;5000826;28;20030;-86
2021/05/26 09:25:38;;;;;;;7.57;2.73;;;13.10;99.90;;;;;;5004734;28;20026;-85
2021/05/26 09:28:16;;;;;;;;;;;13.20;99.90;;;;;;5000834;28;20030;-85
2021/05/26 09:30:42;;;;;;;1.83;1.05;;;13.10;99.90;;;;;;4999368;28;19920;-85
2021/05/26 09:33:29;;;;;;;10.57;2.75;;;13.10;99.90;;;;;;4999265;28;20022;-84
2021/05/26 09:36:21;;;;;;;2.72;1.55;;;13.00;99.90;;;;;;5003929;28;20014;-84
2021/05/26 09:38:54;;;;;;;1.60;0.93;;;13.10;99.90;;;;;;5002369;28;20406;-84
2021/05/26 09:41:26;;;;;;;4.00;1.10;;;13.20;99.90;;;;;;5012660;28;20027;-86
2021/05/26 09:43:55;;;;;;;23.08;3.13;;;13.10;99.90;;;;;;5006878;28;20034;-85
2021/05/26 09:46:34;;;;;;;3.08;0.98;;;13.10;99.90;;;;;;5007801;28;20031;-85
2021/05/26 09:49:15;;;;;;;51.03;6.78;;;13.20;99.90;;;;;;5003895;28;20041;-83
2021/05/26 09:51:45;;;;;;;2.67;1.13;;;13.30;99.90;;;;;;5003191;28;20056;-85
2021/05/26 09:54:14;;;;;;;4.00;1.02;;;13.30;99.90;;;;;;5004129;28;20030;-83
2021/05/26 09:56:42;;;;;;;3.40;1.60;;;13.40;99.90;;;;;;4986603;28;20081;-84
2021/05/26 09:59:08;;;;;;;4.00;1.00;;;13.30;99.90;;;;;;4987713;28;20034;-86
2021/05/26 10:01:35;;;;;;;20.38;3.13;;;13.30;99.90;;;;;;4987009;28;20037;-81
2021/05/26 10:04:01;;;;;;;9.02;1.15;;;13.30;99.90;;;;;;4987546;28;20037;-83
2021/05/26 10:06:29;;;;;;;1.83;0.80;;;13.60;99.90;;;;;;5002225;28;20050;-84
2021/05/26 10:08:56;;;;;;;2.13;0.60;;;13.50;99.90;;;;;;5007569;28;20533;-84
2021/05/26 10:11:23;;;;;;;2.05;0.88;;;13.60;99.90;;;;;;4999888;28;20027;-85
2021/05/26 10:13:50;;;;;;;1.77;0.60;;;13.60;99.90;;;;;;4984430;28;20034;-83
2021/05/26 10:16:18;;;;;;;3.97;0.77;;;13.40;99.90;;;;;;4985889;28;20014;-85
2021/05/26 10:18:48;;;;;;;1.63;0.70;;;13.60;99.90;;;;;;5006922;28;20038;-84
2021/05/26 10:21:37;;;;;;;1.42;0.73;;;13.70;99.90;;;;;;5018996;28;20082;-85
2021/05/26 10:24:06;;;;;;;1.15;0.55;;;13.80;99.90;;;;;;5002800;28;20045;-84
2021/05/26 10:26:47;;;;;;;6.40;0.82;;;13.80;89.10;;;;;;5012657;28;20426;-85
2021/05/26 10:29:28;;;;;;;3.63;0.63;;;14.00;87.60;;;;;;5003959;28;20022;-82
2021/05/26 10:32:02;;;;;;;44.90;27.08;;;14.20;41.90;;;;;;5007489;28;20026;-85
2021/05/26 10:34:47;;;;;;;7.32;4.72;;;14.60;1.00;;;;;;5010277;28;20022;-87
2021/05/26 10:37:35;;;;;;;1.90;0.90;;;14.20;1.00;;;;;;5016051;28;20113;-85
2021/05/26 10:40:20;;;;;;;2.40;1.05;;;14.30;1.00;;;;;;5009873;28;20019;-86
2021/05/26 10:42:46;;;;;;;3.15;0.60;;;14.20;99.90;;;;;;5004708;28;20571;-86
2021/05/26 10:45:12;;;;;;;3.95;0.68;;;14.30;1.00;;;;;;5003312;28;20116;-84
2021/05/26 10:47:44;;;;;;;0.88;0.68;;;14.50;1.00;;;;;;5003576;28;20026;-82
2021/05/26 10:50:45;;;;;;;1.40;0.60;;;14.50;99.90;;;;;;5011934;28;20038;-83
2021/05/26 10:53:13;;;;;;;;;;;14.40;99.90;;;;;;5004658;28;20045;-84
2021/05/26 10:55:48;;;;;;;2.63;0.85;;;14.50;99.90;;;;;;4995918;28;20001;-85
2021/05/26 10:58:25;;;;;;;1.58;0.85;;;14.50;99.90;;;;;;5005404;28;20041;-84
2021/05/26 11:01:03;;;;;;;4.22;1.15;;;14.80;99.90;;;;;;5005337;28;20023;-83
2021/05/26 11:03:40;;;;;;;1.00;0.50;;;14.80;99.90;;;;;;5010765;28;20019;-85
2021/05/26 11:06:26;;;;;;;0.98;0.50;;;15.00;13.50;;;;;;5005647;28;20018;-84
2021/05/26 11:08:53;;;;;;;0.57;0.32;;;15.20;99.90;;;;;;5006147;28;20037;-86
2021/05/26 11:11:21;;;;;;;1.77;0.40;;;14.90;52.20;;;;;;5007235;28;20030;-83
2021/05/26 11:14:13;;;;;;;1.63;0.50;;;14.60;99.90;;;;;;5007273;28;20549;-77
2021/05/26 11:16:47;;;;;;;2.05;0.55;;;14.50;99.90;;;;;;4984124;28;20038;-77
2021/05/26 11:19:13;;;;;;;1.60;0.93;;;14.30;1.00;;;;;;4983909;28;20101;-77
2021/05/26 11:21:55;;;;;;;1.85;0.80;;;14.40;99.90;;;;;;4984973;28;20424;-79
2021/05/26 11:24:22;;;;;;;1.50;0.85;;;14.50;99.90;;;;;;4976442;28;20023;-79
2021/05/26 11:26:48;;;;;;;0.70;0.50;;;14.50;99.90;;;;;;4994323;28;20054;-78
2021/05/26 11:29:25;;;;;;;0.93;0.40;;;14.50;1.20;;;;;;4998512;28;20043;-79
2021/05/26 11:32:04;;;;;;;7.15;0.85;;;14.40;99.90;;;;;;4999944;28;20022;-82
2021/05/26 11:34:30;;;;;;;0.95;0.68;;;14.50;99.90;;;;;;5000729;28;20022;-80
2021/05/26 11:36:56;;;;;;;2.55;1.40;;;14.40;99.90;;;;;;5001728;28;20098;-79
2021/05/26 11:39:29;;;;;;;1.20;0.70;;;14.50;99.90;;;;;;5002694;28;20069;-82
2021/05/26 11:42:18;;;;;;;2.45;1.45;;;14.50;97.30;;;;;;5001598;28;20022;-79
2021/05/26 11:44:53;;;;;;;3.20;0.80;;;14.40;70.60;;;;;;4998682;28;20115;-82
2021/05/26 11:47:35;;;;;;;3.53;0.65;;;14.40;99.90;;;;;;5000288;28;20022;-82
2021/05/26 11:50:22;;;;;;;1.63;0.85;;;14.50;25.20;;;;;;4999831;28;20416;-82
2021/05/26 11:53:16;;;;;;;1.20;0.73;;;14.40;83.50;;;;;;4997167;28;20025;-81
2021/05/26 11:55:47;;;;;;;2.97;0.85;;;14.30;96.90;;;;;;4992975;28;20070;-80
2021/05/26 11:58:29;;;;;;;1.35;0.60;;;14.50;99.90;;;;;;4995344;28;20444;-80
2021/05/26 12:01:16;;;;;;;2.75;0.90;;;14.80;1.00;;;;;;4996212;28;20011;-80
2021/05/26 12:03:42;;;;;;;1.83;0.95;;;15.00;1.00;;;;;;4991447;28;20054;-80
2021/05/26 12:06:08;;;;;;;6.20;2.10;;;15.10;99.90;;;;;;4977895;28;20326;-80
2021/05/26 12:08:39;;;;;;;0.40;0.40;;;15.20;99.90;;;;;;4977089;28;20119;-80
2021/05/26 12:11:08;;;;;;;1.15;1.02;;;15.40;99.90;;;;;;4977043;28;20183;-80
2021/05/26 12:13:38;;;;;;;0.63;0.52;;;15.50;99.90;;;;;;4977916;28;20026;-81
2021/05/26 12:16:22;;;;;;;1.38;0.77;;;15.50;99.10;;;;;;4978040;28;20019;-80
2021/05/26 12:18:55;;;;;;;0.70;0.50;;;15.60;1.00;;;;;;4977713;28;20053;-81
2021/05/26 12:24:29;;;;;;;1.08;0.55;;;15.60;7.90;;;;;;4975534;28;20075;-81
2021/05/26 12:26:55;;;;;;;1.65;0.70;;;16.10;99.90;;;;;;4976066;28;20400;-81
2021/05/26 12:29:24;;;;;;;1.27;0.77;;;16.30;99.90;;;;;;4994572;23;20042;-78
2021/05/26 12:31:50;;;;;;;3.17;0.73;;;16.20;1.00;;;;;;5018291;28;20046;-77
2021/05/26 12:34:17;;;;;;;0.77;0.47;;;16.40;99.90;;;;;;5031111;28;20076;-77
2021/05/26 12:37:04;;;;;;;1.30;0.90;;;16.50;94.30;;;;;;5017679;28;20026;-77
2021/05/26 12:39:40;;;;;;;3.17;0.57;;;16.50;1.00;;;;;;5016495;28;20026;-76
2021/05/26 12:42:07;;;;;;;3.00;0.50;;;16.70;35.90;;;;;;5016805;28;20368;-78
2021/05/26 12:44:34;;;;;;;0.80;0.60;;;16.60;1.00;;;;;;5017572;28;20025;-76
2021/05/26 12:47:02;;;;;;;0.50;0.50;;;16.50;1.00;;;;;;5017038;28;20029;-76
2021/05/26 12:49:32;;;;;;;0.80;0.40;;;16.60;1.00;;;;;;5018055;28;20080;-77
2021/05/26 12:52:03;;;;;;;1.13;0.40;;;16.30;1.00;;;;;;5017404;28;20033;-76
2021/05/26 12:54:41;;;;;;;0.70;0.52;;;16.60;1.00;;;;;;5016555;28;20105;-77
2021/05/26 12:57:14;;;;;;;2.28;0.63;;;16.70;99.90;;;;;;5015952;28;20024;-76
2021/05/26 12:59:42;;;;;;;3.22;0.70;;;16.60;99.90;;;;;;5016952;28;20022;-76
2021/05/26 13:02:13;;;;;;;1.02;0.70;;;16.70;99.90;;;;;;5017152;28;20065;-77
2021/05/26 13:04:49;;;;;;;0.95;0.50;;;16.80;99.90;;;;;;5015643;28;20038;-77
2021/05/26 13:07:24;;;;;;;3.10;0.45;;;16.60;99.90;;;;;;5015492;28;20041;-77
2021/05/26 13:09:50;;;;;;;1.15;0.50;;;16.50;26.40;;;;;;5015691;28;20071;-76
2021/05/26 13:12:23;;;;;;;1.13;0.50;;;16.10;99.90;;;;;;5017038;28;20030;-77
2021/05/26 13:14:49;;;;;;;1.88;0.52;;;15.90;38.50;;;;;;5016523;28;20025;-77